Time;durP1;ratioP1;P1;durP2;ratioP2;P2;SDS_P1;SDS_P2;PMS_P1;PMS_P2;Temp;Humidity;BMP_temperature;BMP_pressure;BME280_temperature;BME280_humidity;BME280_pressure;Samples;Min_cycle;Max_cycle;Signal;HPM_P1;HPM_P2
2021/03/05 00:01:41;;;;;;;8.70;4.33;;;6.20;99.90;;;;;;5055289;28;20487;-52
2021/03/05 00:04:10;;;;;;;7.77;3.70;;;6.10;99.90;;;;;;5038691;28;20828;-52
2021/03/05 00:06:36;;;;;;;6.40;3.90;;;6.10;99.90;;;;;;5053807;28;20460;-52
2021/03/05 00:09:07;;;;;;;7.57;4.57;;;6.10;99.90;;;;;;5054040;28;20487;-52
2021/03/05 00:11:34;;;;;;;5.40;3.80;;;6.10;99.90;;;;;;5053441;28;20481;-52
2021/03/05 00:14:00;;;;;;;7.10;3.67;;;6.20;99.90;;;;;;5053418;28;20447;-53
2021/03/05 00:16:26;;;;;;;5.53;3.00;;;6.20;99.90;;;;;;5058044;28;20550;-53
2021/03/05 00:18:53;;;;;;;5.00;3.10;;;6.30;99.90;;;;;;5074026;28;20854;-53
2021/03/05 00:21:20;;;;;;;5.70;2.70;;;6.30;99.90;;;;;;5062841;28;20479;-52
2021/03/05 00:23:46;;;;;;;3.30;2.10;;;6.50;99.90;;;;;;5063319;28;20455;-53
2021/03/05 00:26:13;;;;;;;3.07;2.30;;;6.50;99.90;;;;;;5073058;28;20505;-53
2021/03/05 00:28:40;;;;;;;4.47;2.70;;;6.60;99.90;;;;;;5064493;28;20489;-53
2021/03/05 00:31:06;;;;;;;2.80;1.97;;;6.60;99.90;;;;;;5049406;28;20961;-52
2021/03/05 00:33:33;;;;;;;3.00;1.70;;;6.60;99.90;;;;;;5044225;28;20506;-53
2021/03/05 00:35:59;;;;;;;2.60;1.87;;;6.60;99.90;;;;;;5053176;28;20451;-50
2021/03/05 00:38:26;;;;;;;4.93;2.00;;;6.80;99.90;;;;;;5053472;28;20471;-50
2021/03/05 00:40:53;;;;;;;1.90;1.63;;;6.80;99.90;;;;;;5052392;28;20492;-50
2021/03/05 00:43:21;;;;;;;3.70;1.90;;;6.90;99.90;;;;;;5053485;28;20452;-50
2021/03/05 00:45:47;;;;;;;2.50;2.10;;;7.00;99.90;;;;;;5052719;28;20538;-51
2021/03/05 00:48:14;;;;;;;2.80;1.90;;;6.90;99.90;;;;;;5053793;28;20483;-51
2021/03/05 00:50:41;;;;;;;4.30;2.37;;;7.00;99.90;;;;;;5052686;28;20455;-50
2021/03/05 00:53:07;;;;;;;8.43;2.83;;;7.00;99.90;;;;;;5053851;28;20451;-50
2021/03/05 00:55:34;;;;;;;5.10;3.47;;;7.00;99.90;;;;;;5052463;28;20509;-51
2021/03/05 00:58:01;;;;;;;7.23;3.13;;;7.10;99.90;;;;;;5069164;28;20472;-50
2021/03/05 01:00:28;;;;;;;7.07;3.43;;;6.90;99.90;;;;;;5057791;28;20481;-50
2021/03/05 01:02:55;;;;;;;8.43;3.30;;;6.90;99.90;;;;;;5039069;28;20441;-50
2021/03/05 01:05:21;;;;;;;8.17;3.43;;;6.90;99.90;;;;;;5059680;28;20455;-50
2021/03/05 01:07:48;;;;;;;4.87;3.10;;;7.00;99.90;;;;;;5053184;28;20494;-50
2021/03/05 01:10:15;;;;;;;6.20;3.53;;;7.00;99.90;;;;;;5052793;28;20440;-51
2021/03/05 01:12:41;;;;;;;9.50;3.20;;;7.10;99.90;;;;;;5052124;28;20449;-50
2021/03/05 01:15:09;;;;;;;5.87;3.33;;;7.00;99.90;;;;;;5049760;28;20448;-51
2021/03/05 01:17:36;;;;;;;5.10;3.00;;;7.00;99.90;;;;;;5064954;28;20457;-50
2021/03/05 01:20:08;;;;;;;5.40;3.40;;;7.00;99.90;;;;;;5059860;28;20504;-50
2021/03/05 01:22:34;;;;;;;5.43;3.17;;;7.00;99.90;;;;;;5052080;28;20458;-53
2021/03/05 01:25:01;;;;;;;7.70;3.30;;;6.90;99.90;;;;;;5052720;28;20540;-50
2021/03/05 01:27:27;;;;;;;5.03;3.00;;;6.80;99.90;;;;;;5063739;28;20447;-50
2021/03/05 01:29:54;;;;;;;5.00;2.70;;;6.90;99.90;;;;;;5071978;28;20454;-50
2021/03/05 01:32:20;;;;;;;6.17;3.33;;;7.00;99.90;;;;;;5057467;28;20794;-51
2021/03/05 01:34:48;;;;;;;4.60;3.43;;;7.00;99.90;;;;;;5063352;28;20447;-50
2021/03/05 01:37:14;;;;;;;6.40;3.83;;;6.90;99.90;;;;;;5071521;28;20447;-51
2021/03/05 01:39:41;;;;;;;5.63;3.50;;;6.90;99.90;;;;;;5071593;28;20996;-51
2021/03/05 01:42:08;;;;;;;5.97;3.20;;;7.00;99.90;;;;;;5060432;28;20480;-50
2021/03/05 01:44:35;;;;;;;5.47;3.50;;;6.90;99.90;;;;;;5052141;28;20480;-50
2021/03/05 01:47:01;;;;;;;5.53;3.13;;;7.00;99.90;;;;;;5052366;28;20454;-51
2021/03/05 01:49:28;;;;;;;5.20;3.40;;;7.00;99.90;;;;;;5051784;28;20828;-50
2021/03/05 01:51:56;;;;;;;6.43;3.73;;;6.90;99.90;;;;;;5047764;28;20439;-50
2021/03/05 01:54:22;;;;;;;10.73;3.70;;;6.90;99.90;;;;;;5064588;28;20875;-50
2021/03/05 01:56:51;;;;;;;3.37;2.70;;;7.00;99.90;;;;;;5056156;28;20443;-51
2021/03/05 01:59:22;;;;;;;4.93;3.50;;;7.00;99.90;;;;;;5072041;28;20497;-50
2021/03/05 02:01:49;;;;;;;7.50;3.83;;;6.80;99.90;;;;;;5062633;28;20479;-50
2021/03/05 02:04:15;;;;;;;3.80;3.30;;;6.80;99.90;;;;;;5051669;28;20451;-51
2021/03/05 02:06:42;;;;;;;10.67;3.70;;;6.90;99.90;;;;;;5055670;28;20447;-51
2021/03/05 02:09:11;;;;;;;4.30;2.97;;;7.00;99.90;;;;;;5070008;28;20474;-51
2021/03/05 02:11:37;;;;;;;7.50;3.57;;;7.00;99.90;;;;;;5051498;28;20443;-50
2021/03/05 02:14:09;;;;;;;6.67;3.83;;;7.00;99.90;;;;;;5051252;28;20485;-50
2021/03/05 02:16:44;;;;;;;5.23;3.60;;;7.10;99.90;;;;;;5050712;28;20452;-51
2021/03/05 02:19:32;;;;;;;4.27;3.50;;;7.10;99.90;;;;;;5051583;28;20995;-51
2021/03/05 02:22:22;;;;;;;9.37;3.90;;;7.10;99.90;;;;;;5050518;28;20533;-50
2021/03/05 02:25:17;;;;;;;6.13;3.00;;;7.20;99.90;;;;;;5021389;28;20444;-51
2021/03/05 02:28:36;;;;;;;5.87;3.50;;;7.20;99.90;;;;;;5059018;28;20485;-51
2021/03/05 02:31:15;;;;;;;7.63;3.30;;;7.00;99.90;;;;;;5050450;28;20459;-51
2021/03/05 02:33:48;;;;;;;5.50;3.57;;;7.10;99.90;;;;;;5054652;28;20447;-51
2021/03/05 02:36:20;;;;;;;9.97;3.20;;;7.20;99.90;;;;;;5048946;28;20435;-50
2021/03/05 02:38:58;;;;;;;6.60;3.70;;;7.10;99.90;;;;;;5032159;28;20526;-51
2021/03/05 02:41:26;;;;;;;5.57;3.53;;;7.10;99.90;;;;;;5051185;28;20471;-50
2021/03/05 02:43:57;;;;;;;3.70;3.10;;;7.00;99.90;;;;;;5051443;28;20454;-51
2021/03/05 02:46:27;;;;;;;4.50;3.80;;;7.10;99.90;;;;;;5050728;28;20960;-50
2021/03/05 02:48:59;;;;;;;5.83;4.10;;;7.10;99.90;;;;;;5053241;28;20558;-51
2021/03/05 02:51:30;;;;;;;4.27;3.77;;;7.10;99.90;;;;;;5051149;28;20487;-50
2021/03/05 02:53:59;;;;;;;6.20;3.60;;;7.20;99.90;;;;;;5041937;28;21006;-50
2021/03/05 02:56:28;;;;;;;5.13;3.70;;;7.10;99.90;;;;;;5051144;28;20452;-50
2021/03/05 02:58:56;;;;;;;5.47;3.53;;;7.10;99.90;;;;;;5054084;28;20470;-50
2021/03/05 03:01:25;;;;;;;7.37;4.20;;;7.10;99.90;;;;;;5067610;28;20691;-50
2021/03/05 03:03:55;;;;;;;5.67;3.67;;;7.20;99.90;;;;;;5053069;28;20991;-50
2021/03/05 03:06:23;;;;;;;5.43;3.90;;;7.20;99.90;;;;;;5050632;28;20478;-50
2021/03/05 03:08:51;;;;;;;6.93;4.03;;;7.20;99.90;;;;;;5050385;28;20989;-51
2021/03/05 03:11:19;;;;;;;5.10;3.90;;;7.20;99.90;;;;;;5051880;28;20497;-50
2021/03/05 03:13:47;;;;;;;5.50;3.60;;;7.20;99.90;;;;;;5052256;28;20456;-51
2021/03/05 03:16:16;;;;;;;5.50;3.63;;;7.20;99.90;;;;;;5052400;28;20457;-50
2021/03/05 03:18:45;;;;;;;6.07;4.03;;;7.10;99.90;;;;;;5070396;28;20474;-51
2021/03/05 03:21:13;;;;;;;6.03;3.80;;;7.10;99.90;;;;;;5056522;28;20493;-50
2021/03/05 03:23:40;;;;;;;5.00;3.20;;;7.00;99.90;;;;;;5050111;28;20872;-50
2021/03/05 03:26:08;;;;;;;4.90;3.40;;;7.00;99.90;;;;;;5050616;28;20480;-50
2021/03/05 03:28:35;;;;;;;7.73;4.00;;;7.00;99.90;;;;;;5046810;28;20486;-51
2021/03/05 03:31:04;;;;;;;4.60;3.43;;;6.90;99.90;;;;;;5062139;28;20442;-50
2021/03/05 03:33:31;;;;;;;6.47;3.87;;;6.90;99.90;;;;;;5068069;28;20540;-50
2021/03/05 03:36:02;;;;;;;6.23;3.80;;;7.00;99.90;;;;;;5068525;28;20443;-50
2021/03/05 03:38:29;;;;;;;7.30;3.33;;;7.20;99.90;;;;;;5053397;28;20562;-50
2021/03/05 03:40:57;;;;;;;4.20;3.20;;;7.20;99.90;;;;;;5050665;28;20482;-50
2021/03/05 03:43:23;;;;;;;5.37;3.40;;;7.10;99.90;;;;;;5051476;28;20455;-50
2021/03/05 03:45:51;;;;;;;4.63;3.37;;;7.00;99.90;;;;;;5050357;28;20455;-50
2021/03/05 03:48:19;;;;;;;6.67;3.73;;;6.90;99.90;;;;;;5049788;28;21016;-51
2021/03/05 03:50:50;;;;;;;5.87;3.37;;;7.00;99.90;;;;;;5052135;28;20449;-51
2021/03/05 03:53:21;;;;;;;4.13;3.00;;;7.00;99.90;;;;;;5068327;28;20963;-51
2021/03/05 03:55:50;;;;;;;4.00;3.00;;;7.00;99.90;;;;;;5069869;28;20446;-51
2021/03/05 03:58:18;;;;;;;8.00;3.40;;;6.90;99.90;;;;;;5070213;28;20466;-50
2021/03/05 04:00:46;;;;;;;5.50;3.67;;;6.90;99.90;;;;;;5054263;28;20482;-50
2021/03/05 04:03:15;;;;;;;4.73;3.60;;;6.70;99.90;;;;;;5067083;28;20444;-50
2021/03/05 04:05:44;;;;;;;6.03;3.83;;;6.60;99.90;;;;;;5067768;28;20536;-51
2021/03/05 04:08:12;;;;;;;5.40;3.43;;;6.70;99.90;;;;;;5065903;28;20485;-50
2021/03/05 04:10:41;;;;;;;5.00;3.10;;;6.60;99.90;;;;;;5049754;28;20523;-50
2021/03/05 04:13:08;;;;;;;5.73;3.23;;;6.70;99.90;;;;;;5069694;28;20829;-51
2021/03/05 04:15:36;;;;;;;4.83;2.83;;;6.70;99.90;;;;;;5048448;28;20463;-51
2021/03/05 04:18:03;;;;;;;4.13;3.20;;;6.70;99.90;;;;;;5047406;28;21026;-50
2021/03/05 04:20:31;;;;;;;4.33;3.17;;;6.70;99.90;;;;;;5048516;28;20470;-50
2021/03/05 04:22:58;;;;;;;3.70;3.07;;;6.80;99.90;;;;;;5050299;28;20534;-50
2021/03/05 04:25:25;;;;;;;4.60;3.33;;;6.80;99.90;;;;;;5050209;28;20452;-51
2021/03/05 04:27:52;;;;;;;4.80;3.23;;;6.90;99.90;;;;;;5087843;22;20470;-50
2021/03/05 04:30:19;;;;;;;7.67;3.77;;;6.90;99.90;;;;;;5053149;28;20479;-50
2021/03/05 04:32:46;;;;;;;7.40;3.83;;;6.70;99.90;;;;;;5053643;28;20817;-50
2021/03/05 04:35:13;;;;;;;4.83;3.70;;;6.80;99.90;;;;;;5053115;28;20967;-50
2021/03/05 04:37:40;;;;;;;4.80;3.70;;;6.70;99.90;;;;;;5053496;28;20451;-50
2021/03/05 04:40:09;;;;;;;6.47;3.80;;;6.70;99.90;;;;;;5052949;28;20477;-50
2021/03/05 04:42:35;;;;;;;6.53;3.50;;;6.60;99.90;;;;;;5053117;28;21014;-50
2021/03/05 04:45:04;;;;;;;7.43;3.70;;;6.90;99.90;;;;;;5035837;28;20456;-50
2021/03/05 04:47:31;;;;;;;5.00;3.70;;;6.90;99.90;;;;;;5036001;28;20458;-50
2021/03/05 04:49:58;;;;;;;6.73;3.83;;;6.70;99.90;;;;;;5053236;28;20495;-50
2021/03/05 04:52:24;;;;;;;5.17;3.67;;;6.60;99.90;;;;;;5052707;28;20555;-50
2021/03/05 04:54:51;;;;;;;5.80;3.60;;;6.50;99.90;;;;;;5046030;28;20528;-50
2021/03/05 04:57:18;;;;;;;8.10;4.03;;;6.40;99.90;;;;;;5043496;28;21023;-50
2021/03/05 04:59:45;;;;;;;7.17;3.73;;;6.60;99.90;;;;;;5045936;28;20553;-50
2021/03/05 05:02:12;;;;;;;7.10;3.73;;;6.60;99.90;;;;;;5051516;28;20990;-50
2021/03/05 05:04:39;;;;;;;7.00;3.40;;;6.70;99.90;;;;;;5052931;28;20447;-51
2021/03/05 05:07:05;;;;;;;4.90;3.60;;;6.70;99.90;;;;;;5042676;28;20514;-50
2021/03/05 05:09:32;;;;;;;7.50;4.13;;;6.70;99.90;;;;;;5040837;28;20494;-50
2021/03/05 05:11:59;;;;;;;4.97;3.50;;;6.70;99.90;;;;;;5044480;28;20466;-50
2021/03/05 05:14:25;;;;;;;5.27;3.20;;;6.80;99.90;;;;;;5049926;28;20491;-50
2021/03/05 05:16:52;;;;;;;5.53;3.50;;;6.90;99.90;;;;;;5052184;28;21026;-50
2021/03/05 05:19:19;;;;;;;4.80;3.30;;;7.00;99.90;;;;;;5052268;28;20468;-50
2021/03/05 05:21:46;;;;;;;6.20;3.97;;;7.00;99.90;;;;;;5052432;28;20485;-50
2021/03/05 05:24:12;;;;;;;5.33;3.80;;;6.60;99.90;;;;;;5049615;28;20451;-50
2021/03/05 05:26:39;;;;;;;5.90;3.97;;;6.40;99.90;;;;;;5052317;28;20450;-50
2021/03/05 05:29:05;;;;;;;7.50;4.10;;;6.30;99.90;;;;;;5052548;28;20533;-50
2021/03/05 05:31:32;;;;;;;8.43;4.50;;;6.40;99.90;;;;;;5052334;28;20444;-50
2021/03/05 05:33:58;;;;;;;6.63;3.87;;;6.40;99.90;;;;;;5045439;28;20510;-50
2021/03/05 05:36:26;;;;;;;10.20;3.87;;;6.40;99.90;;;;;;5039458;28;20453;-50
2021/03/05 05:38:52;;;;;;;7.03;3.80;;;6.50;99.90;;;;;;5032234;28;20483;-50
2021/03/05 05:41:23;;;;;;;5.67;4.30;;;6.60;99.90;;;;;;5032904;28;20491;-50
2021/03/05 05:43:49;;;;;;;5.13;3.90;;;6.70;99.90;;;;;;5036493;28;20455;-50
2021/03/05 05:46:18;;;;;;;8.43;4.80;;;6.70;99.90;;;;;;5032096;28;20443;-50
2021/03/05 05:48:47;;;;;;;10.57;6.40;;;6.50;99.90;;;;;;5032190;28;20479;-50
2021/03/05 05:51:17;;;;;;;13.33;6.97;;;6.40;99.90;;;;;;5044463;28;20542;-50
2021/03/05 05:53:46;;;;;;;12.73;7.53;;;6.40;99.90;;;;;;5037396;28;20487;-50
2021/03/05 05:56:14;;;;;;;14.70;8.43;;;6.40;99.90;;;;;;5032147;28;20456;-50
2021/03/05 05:58:41;;;;;;;13.00;7.47;;;6.30;99.90;;;;;;5050471;28;21004;-50
2021/03/05 06:01:08;;;;;;;15.30;7.80;;;6.20;99.90;;;;;;5044133;28;20476;-48
2021/03/05 06:03:37;;;;;;;10.90;6.77;;;6.20;99.90;;;;;;5038039;28;20604;-48
2021/03/05 06:06:04;;;;;;;16.23;8.00;;;6.20;99.90;;;;;;5051195;28;20451;-49
2021/03/05 06:08:32;;;;;;;14.67;7.87;;;6.20;99.90;;;;;;5051823;28;20498;-48
2021/03/05 06:10:59;;;;;;;15.30;8.23;;;6.10;99.90;;;;;;5051813;28;20501;-48
2021/03/05 06:13:28;;;;;;;15.10;8.63;;;6.10;99.90;;;;;;5051008;28;20477;-50
2021/03/05 06:16:17;;;;;;;13.03;7.60;;;6.20;99.90;;;;;;5051402;28;20458;-50
2021/03/05 06:18:45;;;;;;;12.10;7.30;;;6.20;99.90;;;;;;5051098;28;20486;-50
2021/03/05 06:21:12;;;;;;;12.87;7.00;;;6.00;99.90;;;;;;5051320;28;20475;-50
2021/03/05 06:23:57;;;;;;;11.10;6.83;;;6.10;99.90;;;;;;5051149;28;20523;-50
2021/03/05 06:26:25;;;;;;;10.67;6.07;;;6.20;99.90;;;;;;5050768;28;20944;-50
2021/03/05 06:29:05;;;;;;;8.93;5.30;;;6.10;99.90;;;;;;5051075;28;20484;-50
2021/03/05 06:31:32;;;;;;;8.13;5.20;;;6.10;99.90;;;;;;5051517;28;20439;-50
2021/03/05 06:34:01;;;;;;;13.07;5.63;;;6.10;99.90;;;;;;5049593;28;20451;-50
2021/03/05 06:36:27;;;;;;;8.50;5.17;;;6.10;99.90;;;;;;5040830;28;20454;-50
2021/03/05 06:38:55;;;;;;;10.03;5.00;;;6.30;99.90;;;;;;5051167;28;20521;-50
2021/03/05 06:41:24;;;;;;;11.90;7.00;;;6.20;99.90;;;;;;5034776;28;20488;-50
2021/03/05 06:43:53;;;;;;;7.70;4.53;;;6.20;99.90;;;;;;5040523;28;20459;-50
2021/03/05 06:46:31;;;;;;;7.10;4.90;;;6.30;99.90;;;;;;5041660;28;20508;-49
2021/03/05 06:48:58;;;;;;;8.23;5.20;;;6.60;99.90;;;;;;5030964;28;20468;-49
2021/03/05 06:51:25;;;;;;;7.27;4.70;;;6.50;99.90;;;;;;5038101;28;20448;-50
2021/03/05 06:54:06;;;;;;;4.80;3.90;;;6.60;99.90;;;;;;5050239;28;20461;-50
2021/03/05 06:56:34;;;;;;;6.67;4.47;;;6.70;99.90;;;;;;5051039;28;20454;-50
2021/03/05 06:59:03;;;;;;;7.97;5.00;;;6.70;99.90;;;;;;5042765;28;20530;-49
2021/03/05 07:01:30;;;;;;;6.83;4.90;;;6.60;99.90;;;;;;5045865;28;20480;-49
2021/03/05 07:04:13;;;;;;;9.60;5.17;;;6.60;99.90;;;;;;5048173;28;20451;-50
2021/03/05 07:06:40;;;;;;;9.17;5.40;;;6.50;99.90;;;;;;5050780;28;20461;-50
2021/03/05 07:09:11;;;;;;;8.43;5.20;;;6.50;99.90;;;;;;5050559;28;20481;-50
2021/03/05 07:11:39;;;;;;;9.17;5.33;;;6.30;99.90;;;;;;5050605;28;20972;-50
2021/03/05 07:14:11;;;;;;;10.50;6.40;;;6.30;99.90;;;;;;5050391;28;20478;-50
2021/03/05 07:16:43;;;;;;;11.47;6.27;;;6.30;99.90;;;;;;5050555;28;20455;-49
2021/03/05 07:19:13;;;;;;;13.50;7.80;;;6.50;99.90;;;;;;5050575;28;20884;-50
2021/03/05 07:21:42;;;;;;;10.23;6.77;;;6.30;99.90;;;;;;5048621;28;20476;-50
2021/03/05 07:24:13;;;;;;;14.50;7.37;;;6.30;99.90;;;;;;5049621;28;20447;-50
2021/03/05 07:26:52;;;;;;;11.33;5.83;;;6.40;99.90;;;;;;5048255;28;20463;-50
2021/03/05 07:29:24;;;;;;;11.77;6.47;;;6.60;99.90;;;;;;5030332;28;20480;-50
2021/03/05 07:32:09;;;;;;;10.37;5.73;;;6.50;99.90;;;;;;5049189;28;20449;-50
2021/03/05 07:34:47;;;;;;;9.60;6.13;;;6.40;99.90;;;;;;5050361;28;20503;-50
2021/03/05 07:37:14;;;;;;;10.53;6.80;;;6.50;99.90;;;;;;5042929;28;20809;-50
2021/03/05 07:39:45;;;;;;;13.13;7.83;;;6.60;99.90;;;;;;5050257;28;20467;-50
2021/03/05 07:42:12;;;;;;;11.87;6.07;;;6.60;99.90;;;;;;5050046;28;20479;-50
2021/03/05 07:44:39;;;;;;;12.43;6.07;;;6.50;99.90;;;;;;5039227;28;20525;-50
2021/03/05 07:47:10;;;;;;;20.27;7.00;;;6.40;99.90;;;;;;5049495;28;20451;-50
2021/03/05 07:49:38;;;;;;;11.17;6.27;;;6.60;99.90;;;;;;5050277;28;20479;-50
2021/03/05 07:52:06;;;;;;;10.47;6.23;;;6.60;99.90;;;;;;5031539;28;20446;-50
2021/03/05 07:54:46;;;;;;;12.70;5.97;;;6.50;99.90;;;;;;5030226;28;20449;-50
2021/03/05 07:57:47;;;;;;;10.10;6.17;;;6.70;99.90;;;;;;5030809;28;20835;-49
2021/03/05 08:00:31;;;;;;;10.07;6.20;;;6.60;99.90;;;;;;5027276;28;20441;-50
2021/03/05 08:02:59;;;;;;;11.50;5.60;;;6.50;99.90;;;;;;5017890;28;20494;-50
2021/03/05 08:05:40;;;;;;;13.30;6.90;;;6.50;99.90;;;;;;5034182;28;20943;-50
2021/03/05 08:08:10;;;;;;;12.40;6.80;;;6.50;99.90;;;;;;5034364;28;20444;-49
2021/03/05 08:10:37;;;;;;;9.97;6.10;;;6.40;99.90;;;;;;5045680;28;20491;-50
2021/03/05 08:13:24;;;;;;;9.53;6.07;;;6.30;99.90;;;;;;5049945;28;20464;-50
2021/03/05 08:15:51;;;;;;;10.87;6.23;;;6.40;99.90;;;;;;5046328;28;20508;-50
2021/03/05 08:18:19;;;;;;;8.30;5.57;;;6.30;99.90;;;;;;5053634;28;20534;-50
2021/03/05 08:20:53;;;;;;;11.20;6.90;;;6.30;99.90;;;;;;5052675;28;20471;-49
2021/03/05 08:23:20;;;;;;;10.90;6.40;;;6.30;99.90;;;;;;5053560;28;20912;-50
2021/03/05 08:25:52;;;;;;;12.77;6.10;;;6.30;99.90;;;;;;5053363;28;20448;-49
2021/03/05 08:28:39;;;;;;;11.77;6.20;;;6.30;99.90;;;;;;5053297;28;20983;-50
2021/03/05 08:31:34;;;;;;;11.10;6.60;;;6.20;99.90;;;;;;5053654;28;20512;-49
2021/03/05 08:34:29;;;;;;;12.20;6.53;;;6.20;99.90;;;;;;5035760;28;20804;-50
2021/03/05 08:36:56;;;;;;;9.80;6.10;;;6.30;99.90;;;;;;5053433;28;20440;-50
2021/03/05 08:39:28;;;;;;;12.63;6.50;;;6.40;99.90;;;;;;5053424;28;20528;-49
2021/03/05 08:42:29;;;;;;;11.23;6.50;;;6.60;99.90;;;;;;5053361;28;20485;-50
2021/03/05 08:45:16;;;;;;;10.10;5.60;;;6.60;99.90;;;;;;4971842;28;20447;-50
2021/03/05 08:47:45;;;;;;;10.60;6.13;;;6.60;99.90;;;;;;4969944;28;21043;-50
2021/03/05 08:50:13;;;;;;;12.07;6.80;;;6.60;99.90;;;;;;5021014;28;20497;-50
2021/03/05 08:52:41;;;;;;;12.63;6.70;;;6.40;99.90;;;;;;5052631;28;20470;-50
2021/03/05 08:55:08;;;;;;;12.43;6.60;;;6.60;99.90;;;;;;5052998;28;20455;-50
2021/03/05 08:57:39;;;;;;;14.00;6.50;;;6.50;99.90;;;;;;5052996;28;20458;-49
2021/03/05 09:00:07;;;;;;;11.50;6.60;;;6.40;99.90;;;;;;5049280;28;21071;-50
2021/03/05 09:02:34;;;;;;;16.87;8.40;;;6.30;99.90;;;;;;5039460;28;20487;-50
2021/03/05 09:05:01;;;;;;;13.57;7.67;;;6.40;99.90;;;;;;5055130;28;20463;-49
2021/03/05 09:07:31;;;;;;;13.70;8.00;;;6.30;99.90;;;;;;5069179;28;20446;-50
2021/03/05 09:09:58;;;;;;;13.30;8.27;;;6.10;99.90;;;;;;5051016;28;20500;-50
2021/03/05 09:12:26;;;;;;;17.13;8.63;;;6.00;99.90;;;;;;5051226;28;20451;-50
2021/03/05 09:15:02;;;;;;;12.10;7.37;;;6.20;99.90;;;;;;5052159;28;20474;-49
2021/03/05 09:17:28;;;;;;;13.45;8.60;;;6.30;99.90;;;;;;5043768;28;20528;-50
2021/03/05 09:19:55;;;;;;;15.00;8.00;;;6.30;99.90;;;;;;5048506;28;20225;-49
2021/03/05 09:22:24;;;;;;;13.40;8.30;;;6.40;99.90;;;;;;5045833;28;20536;-49
2021/03/05 09:24:58;;;;;;;13.27;7.80;;;6.50;99.90;;;;;;5044747;28;20965;-50
2021/03/05 09:27:29;;;;;;;14.53;9.03;;;6.60;99.90;;;;;;5044271;28;20471;-49
2021/03/05 09:29:57;;;;;;;13.70;8.07;;;6.60;99.90;;;;;;5049525;28;20486;-50
2021/03/05 09:32:24;;;;;;;15.20;7.77;;;6.40;99.90;;;;;;5051545;28;20470;-51
2021/03/05 09:34:56;;;;;;;13.67;8.70;;;6.30;99.90;;;;;;5049009;28;20473;-50
2021/03/05 09:37:26;;;;;;;16.13;8.87;;;6.30;99.90;;;;;;5051610;28;20463;-51
2021/03/05 09:39:54;;;;;;;17.03;8.70;;;6.40;99.90;;;;;;5043302;28;20483;-50
2021/03/05 09:42:50;;;;;;;15.50;8.40;;;6.00;99.90;;;;;;5044476;28;20487;-50
2021/03/05 09:45:33;;;;;;;18.87;9.30;;;6.00;99.90;;;;;;5045477;28;20464;-51
2021/03/05 09:47:59;;;;;;;18.03;8.60;;;6.10;99.90;;;;;;5043886;28;20837;-50
2021/03/05 09:50:26;;;;;;;17.70;9.23;;;6.00;99.90;;;;;;5043015;28;20467;-50
2021/03/05 09:52:54;;;;;;;23.27;10.70;;;5.80;99.90;;;;;;5043191;28;21211;-50
2021/03/05 09:55:28;;;;;;;25.13;12.00;;;5.90;99.90;;;;;;5043490;28;20507;-50
2021/03/05 09:57:55;;;;;;;26.47;11.40;;;5.70;99.90;;;;;;5043502;28;20510;-50
2021/03/05 10:00:32;;;;;;;27.00;10.90;;;5.60;99.90;;;;;;5046647;28;20460;-50
2021/03/05 10:03:03;;;;;;;26.83;12.37;;;5.50;99.90;;;;;;5043878;28;20571;-48
2021/03/05 10:05:31;;;;;;;27.63;11.87;;;5.40;99.90;;;;;;5043372;28;20505;-48
2021/03/05 10:07:58;;;;;;;25.50;12.10;;;5.30;99.90;;;;;;5043546;28;20833;-48
2021/03/05 10:10:25;;;;;;;30.17;13.43;;;5.20;99.90;;;;;;5051640;28;20456;-48
2021/03/05 10:12:52;;;;;;;28.20;12.30;;;5.20;99.90;;;;;;5050826;28;20456;-48
2021/03/05 10:15:19;;;;;;;24.27;11.67;;;5.20;99.90;;;;;;5050448;28;21151;-50
2021/03/05 10:17:46;;;;;;;30.20;13.40;;;5.30;99.90;;;;;;5050633;28;20459;-50
2021/03/05 10:20:13;;;;;;;32.33;13.37;;;5.30;99.90;;;;;;5051145;28;20490;-50
2021/03/05 10:22:40;;;;;;;28.60;12.00;;;5.30;99.90;;;;;;5050714;28;20491;-50
2021/03/05 10:25:12;;;;;;;28.87;12.70;;;5.30;99.90;;;;;;5050883;28;20474;-51
2021/03/05 10:27:42;;;;;;;33.90;13.07;;;5.20;99.90;;;;;;5050777;28;20550;-49
2021/03/05 10:30:09;;;;;;;32.83;12.63;;;5.30;99.90;;;;;;5075423;22;20506;-51
2021/03/05 10:32:39;;;;;;;32.90;14.20;;;5.20;99.90;;;;;;5051152;28;20996;-51
2021/03/05 10:35:09;;;;;;;29.33;11.93;;;5.20;99.90;;;;;;5051721;28;20829;-53
2021/03/05 10:37:37;;;;;;;31.73;14.00;;;5.10;99.90;;;;;;5050997;28;20476;-52
2021/03/05 10:40:06;;;;;;;28.17;14.20;;;5.10;99.90;;;;;;5050862;28;20487;-50
2021/03/05 10:42:33;;;;;;;34.20;15.40;;;5.30;99.90;;;;;;5051352;28;20840;-52
2021/03/05 10:45:00;;;;;;;29.70;13.03;;;5.30;99.90;;;;;;5050783;28;20460;-53
2021/03/05 10:47:26;;;;;;;25.70;11.60;;;5.30;99.90;;;;;;5051141;28;20467;-52
2021/03/05 10:49:53;;;;;;;30.73;13.57;;;5.20;99.90;;;;;;5050838;28;20487;-52
2021/03/05 10:52:22;;;;;;;29.20;12.70;;;5.20;99.90;;;;;;5051148;28;21091;-53
2021/03/05 10:54:49;;;;;;;30.07;13.00;;;5.10;99.90;;;;;;5050518;28;20464;-52
2021/03/05 10:57:17;;;;;;;30.47;11.87;;;5.20;99.90;;;;;;5051043;28;20517;-53
2021/03/05 10:59:47;;;;;;;25.37;11.10;;;5.10;99.90;;;;;;5049605;28;20490;-52
2021/03/05 11:02:14;;;;;;;18.50;9.10;;;5.10;99.90;;;;;;5050380;28;20523;-50
2021/03/05 11:04:41;;;;;;;17.77;8.60;;;5.10;99.90;;;;;;5050684;28;20447;-52
2021/03/05 11:07:07;;;;;;;16.57;8.23;;;4.80;99.90;;;;;;5050421;28;20471;-52
2021/03/05 11:09:34;;;;;;;13.33;7.13;;;4.70;99.90;;;;;;5050341;28;20484;-52
2021/03/05 11:12:01;;;;;;;12.13;6.53;;;4.60;99.90;;;;;;5050799;28;20493;-52
2021/03/05 11:14:28;;;;;;;13.27;7.30;;;4.50;99.90;;;;;;5049997;28;20467;-53
2021/03/05 11:16:56;;;;;;;14.10;6.73;;;4.50;99.90;;;;;;5050489;28;20472;-52
2021/03/05 11:19:24;;;;;;;13.80;7.50;;;4.50;99.90;;;;;;5050211;28;20479;-52
2021/03/05 11:21:50;;;;;;;12.70;6.00;;;4.40;99.90;;;;;;5050587;28;21057;-53
2021/03/05 11:24:17;;;;;;;14.77;7.17;;;4.50;99.90;;;;;;5050287;28;20471;-53
2021/03/05 11:26:44;;;;;;;12.13;6.80;;;4.50;99.90;;;;;;5049875;28;20468;-52
2021/03/05 11:29:14;;;;;;;12.73;6.17;;;4.40;99.90;;;;;;5049919;28;20494;-52
2021/03/05 11:31:41;;;;;;;12.53;6.80;;;4.40;99.90;;;;;;5050546;28;20932;-52
2021/03/05 11:34:11;;;;;;;12.70;6.37;;;4.30;99.90;;;;;;5051423;28;20472;-53
2021/03/05 11:36:37;;;;;;;13.87;6.37;;;4.20;99.90;;;;;;5057185;28;20512;-53
2021/03/05 11:39:05;;;;;;;12.00;6.17;;;4.20;99.90;;;;;;5056292;28;21033;-53
2021/03/05 11:41:32;;;;;;;12.30;6.73;;;4.30;99.90;;;;;;5056615;28;20494;-53
2021/03/05 11:44:02;;;;;;;13.07;7.90;;;4.30;99.90;;;;;;5054288;28;20439;-52
2021/03/05 11:46:29;;;;;;;13.80;7.10;;;4.40;99.90;;;;;;5057178;28;20219;-53
2021/03/05 11:48:55;;;;;;;13.50;6.90;;;4.40;99.90;;;;;;5055285;28;20483;-53
2021/03/05 11:51:22;;;;;;;13.33;7.10;;;4.30;99.90;;;;;;5056113;28;20463;-52
2021/03/05 11:53:50;;;;;;;12.47;7.33;;;4.40;99.90;;;;;;5055874;28;20458;-52
2021/03/05 11:56:17;;;;;;;12.13;6.70;;;4.50;99.90;;;;;;5056677;28;20833;-52
2021/03/05 11:58:44;;;;;;;12.33;7.10;;;4.50;99.90;;;;;;5055660;28;20475;-53
2021/03/05 12:01:12;;;;;;;9.13;5.70;;;4.50;99.90;;;;;;5055271;28;20468;-53
2021/03/05 12:03:40;;;;;;;9.67;6.10;;;4.50;99.90;;;;;;5056449;28;20456;-53
2021/03/05 12:06:07;;;;;;;11.27;5.67;;;4.40;99.90;;;;;;5055793;28;20927;-52
2021/03/05 12:08:34;;;;;;;10.57;5.77;;;4.30;99.90;;;;;;5056020;28;20487;-52
2021/03/05 12:11:01;;;;;;;9.27;5.17;;;4.40;99.90;;;;;;5055133;28;20466;-52
2021/03/05 12:13:27;;;;;;;12.57;6.10;;;4.40;99.90;;;;;;5056281;28;20509;-53
2021/03/05 12:15:54;;;;;;;8.57;5.10;;;4.40;99.90;;;;;;5055863;28;20458;-53
2021/03/05 12:18:21;;;;;;;8.80;4.83;;;4.40;99.90;;;;;;5051467;28;20463;-53
2021/03/05 12:20:48;;;;;;;9.03;5.40;;;4.60;99.90;;;;;;5050493;28;20569;-52
2021/03/05 12:23:15;;;;;;;9.47;5.23;;;4.50;99.90;;;;;;5050572;28;21073;-53
2021/03/05 12:25:42;;;;;;;8.00;4.83;;;4.50;99.90;;;;;;5051774;28;20460;-53
2021/03/05 12:28:09;;;;;;;9.17;5.53;;;4.50;99.90;;;;;;5048421;28;21241;-52
2021/03/05 12:30:36;;;;;;;10.50;5.60;;;4.60;99.90;;;;;;5051448;28;20487;-52
2021/03/05 12:33:02;;;;;;;9.40;5.77;;;4.60;99.90;;;;;;5052250;28;20459;-53
2021/03/05 12:35:29;;;;;;;10.57;6.10;;;4.80;99.90;;;;;;5055586;28;20462;-53
2021/03/05 12:37:56;;;;;;;6.50;4.67;;;4.80;99.90;;;;;;5055917;28;20996;-51
2021/03/05 12:40:22;;;;;;;9.37;5.47;;;5.10;99.90;;;;;;5056152;28;20463;-51
2021/03/05 12:42:55;;;;;;;9.03;5.57;;;5.30;99.90;;;;;;5055368;28;21003;-51
2021/03/05 12:45:21;;;;;;;8.77;5.20;;;5.20;99.90;;;;;;5054695;28;20478;-52
2021/03/05 12:47:48;;;;;;;10.80;5.33;;;5.10;99.90;;;;;;5051602;28;20471;-51
2021/03/05 12:50:15;;;;;;;9.13;5.50;;;5.10;99.90;;;;;;5052579;28;20545;-51
2021/03/05 12:52:41;;;;;;;8.57;5.00;;;4.90;99.90;;;;;;5051739;28;20451;-53
2021/03/05 12:55:09;;;;;;;8.07;4.67;;;4.70;99.90;;;;;;5052272;28;20471;-53
2021/03/05 12:57:35;;;;;;;10.30;5.43;;;4.80;99.90;;;;;;5052348;28;20495;-53
2021/03/05 13:00:04;;;;;;;9.30;4.83;;;4.80;99.90;;;;;;5052352;28;20497;-53
2021/03/05 13:02:30;;;;;;;5.10;3.03;;;4.80;99.90;;;;;;5052647;28;20863;-53